sensor_id;sensor_type;location;lat;lon;timestamp;P1;durP1;ratioP1;P2;durP2;ratioP2
54235;SDS011;40151;43.606;1.472;2023-03-01T00:02:17;5.53;;;2.95;;
54235;SDS011;40151;43.606;1.472;2023-03-01T00:04:42;5.28;;;3.13;;
54235;SDS011;40151;43.606;1.472;2023-03-01T00:07:08;5.13;;;3.15;;
54235;SDS011;40151;43.606;1.472;2023-03-01T00:09:35;5.95;;;3.05;;
54235;SDS011;40151;43.606;1.472;2023-03-01T00:12:01;6.05;;;3.28;;
54235;SDS011;40151;43.606;1.472;2023-03-01T00:14:27;5.20;;;2.97;;
54235;SDS011;40151;43.606;1.472;2023-03-01T00:16:53;5.22;;;3.00;;
54235;SDS011;40151;43.606;1.472;2023-03-01T00:19:19;5.57;;;3.25;;
54235;SDS011;40151;43.606;1.472;2023-03-01T00:21:47;5.78;;;2.80;;
54235;SDS011;40151;43.606;1.472;2023-03-01T00:24:13;4.90;;;2.80;;
54235;SDS011;40151;43.606;1.472;2023-03-01T00:26:39;4.88;;;2.80;;
54235;SDS011;40151;43.606;1.472;2023-03-01T00:29:05;4.80;;;2.60;;
54235;SDS011;40151;43.606;1.472;2023-03-01T00:31:31;5.13;;;2.85;;
54235;SDS011;40151;43.606;1.472;2023-03-01T00:34:04;5.72;;;3.00;;
54235;SDS011;40151;43.606;1.472;2023-03-01T00:36:35;5.80;;;2.80;;
54235;SDS011;40151;43.606;1.472;2023-03-01T00:39:03;5.18;;;3.00;;
54235;SDS011;40151;43.606;1.472;2023-03-01T00:51:46;5.60;;;3.22;;
54235;SDS011;40151;43.606;1.472;2023-03-01T00:54:12;5.00;;;2.88;;
54235;SDS011;40151;43.606;1.472;2023-03-01T00:56:38;4.63;;;2.65;;
54235;SDS011;40151;43.606;1.472;2023-03-01T00:59:03;5.78;;;2.92;;
54235;SDS011;40151;43.606;1.472;2023-03-01T01:01:30;5.22;;;2.90;;
54235;SDS011;40151;43.606;1.472;2023-03-01T01:03:57;4.68;;;2.72;;
54235;SDS011;40151;43.606;1.472;2023-03-01T01:06:26;5.20;;;2.88;;
54235;SDS011;40151;43.606;1.472;2023-03-01T01:08:54;5.00;;;2.90;;
54235;SDS011;40151;43.606;1.472;2023-03-01T01:11:21;6.00;;;3.42;;
54235;SDS011;40151;43.606;1.472;2023-03-01T01:13:48;5.28;;;3.03;;
54235;SDS011;40151;43.606;1.472;2023-03-01T01:16:15;4.93;;;2.90;;
54235;SDS011;40151;43.606;1.472;2023-03-01T01:18:42;4.90;;;2.80;;
54235;SDS011;40151;43.606;1.472;2023-03-01T01:21:10;4.22;;;2.40;;
54235;SDS011;40151;43.606;1.472;2023-03-01T01:23:38;5.35;;;2.90;;
54235;SDS011;40151;43.606;1.472;2023-03-01T01:26:06;5.07;;;3.20;;
54235;SDS011;40151;43.606;1.472;2023-03-01T01:28:33;4.20;;;2.50;;
54235;SDS011;40151;43.606;1.472;2023-03-01T01:31:00;4.63;;;2.60;;
54235;SDS011;40151;43.606;1.472;2023-03-01T01:33:25;4.93;;;3.20;;
54235;SDS011;40151;43.606;1.472;2023-03-01T01:35:51;5.20;;;2.95;;
54235;SDS011;40151;43.606;1.472;2023-03-01T01:38:17;5.82;;;2.90;;
54235;SDS011;40151;43.606;1.472;2023-03-01T01:40:46;5.10;;;2.70;;
54235;SDS011;40151;43.606;1.472;2023-03-01T01:43:26;5.03;;;3.17;;
54235;SDS011;40151;43.606;1.472;2023-03-01T01:46:15;5.43;;;2.85;;
54235;SDS011;40151;43.606;1.472;2023-03-01T01:49:02;5.22;;;2.72;;
54235;SDS011;40151;43.606;1.472;2023-03-01T01:51:31;5.40;;;2.97;;
54235;SDS011;40151;43.606;1.472;2023-03-01T01:54:23;5.18;;;3.15;;
54235;SDS011;40151;43.606;1.472;2023-03-01T01:56:55;4.57;;;2.70;;
54235;SDS011;40151;43.606;1.472;2023-03-01T01:59:25;5.03;;;2.97;;
54235;SDS011;40151;43.606;1.472;2023-03-01T02:01:53;4.50;;;2.72;;
54235;SDS011;40151;43.606;1.472;2023-03-01T02:04:19;4.40;;;2.55;;
54235;SDS011;40151;43.606;1.472;2023-03-01T02:06:48;5.32;;;3.05;;
54235;SDS011;40151;43.606;1.472;2023-03-01T02:09:19;4.65;;;2.53;;
54235;SDS011;40151;43.606;1.472;2023-03-01T02:11:47;4.78;;;2.60;;
54235;SDS011;40151;43.606;1.472;2023-03-01T02:14:14;5.13;;;2.92;;
54235;SDS011;40151;43.606;1.472;2023-03-01T02:16:40;4.32;;;2.53;;
54235;SDS011;40151;43.606;1.472;2023-03-01T02:19:07;4.30;;;2.40;;
54235;SDS011;40151;43.606;1.472;2023-03-01T02:21:42;5.43;;;2.83;;
54235;SDS011;40151;43.606;1.472;2023-03-01T02:24:19;4.45;;;2.60;;
54235;SDS011;40151;43.606;1.472;2023-03-01T02:26:46;4.13;;;2.50;;
54235;SDS011;40151;43.606;1.472;2023-03-01T02:29:15;4.93;;;2.85;;
54235;SDS011;40151;43.606;1.472;2023-03-01T02:31:40;4.57;;;2.80;;
54235;SDS011;40151;43.606;1.472;2023-03-01T02:34:06;5.07;;;3.03;;
54235;SDS011;40151;43.606;1.472;2023-03-01T02:39:18;4.88;;;2.63;;
54235;SDS011;40151;43.606;1.472;2023-03-01T02:41:50;3.78;;;2.53;;
54235;SDS011;40151;43.606;1.472;2023-03-01T02:44:17;4.22;;;2.42;;
54235;SDS011;40151;43.606;1.472;2023-03-01T02:46:47;4.13;;;2.50;;
54235;SDS011;40151;43.606;1.472;2023-03-01T02:49:18;4.55;;;2.65;;
54235;SDS011;40151;43.606;1.472;2023-03-01T02:56:55;4.60;;;2.88;;
54235;SDS011;40151;43.606;1.472;2023-03-01T02:59:22;4.38;;;2.60;;
54235;SDS011;40151;43.606;1.472;2023-03-01T03:01:52;4.78;;;2.60;;
54235;SDS011;40151;43.606;1.472;2023-03-01T03:04:18;4.13;;;2.35;;
54235;SDS011;40151;43.606;1.472;2023-03-01T03:06:46;4.43;;;2.50;;
54235;SDS011;40151;43.606;1.472;2023-03-01T03:09:13;4.65;;;2.70;;
54235;SDS011;40151;43.606;1.472;2023-03-01T03:11:40;4.95;;;2.53;;
54235;SDS011;40151;43.606;1.472;2023-03-01T03:14:06;5.18;;;2.95;;
54235;SDS011;40151;43.606;1.472;2023-03-01T03:16:39;4.78;;;2.75;;
54235;SDS011;40151;43.606;1.472;2023-03-01T03:19:08;4.32;;;2.40;;
54235;SDS011;40151;43.606;1.472;2023-03-01T03:21:33;4.15;;;2.35;;
54235;SDS011;40151;43.606;1.472;2023-03-01T03:23:59;4.57;;;2.53;;
54235;SDS011;40151;43.606;1.472;2023-03-01T03:26:24;4.85;;;2.30;;
54235;SDS011;40151;43.606;1.472;2023-03-01T03:28:50;5.43;;;2.92;;
54235;SDS011;40151;43.606;1.472;2023-03-01T03:31:16;4.38;;;2.55;;
54235;SDS011;40151;43.606;1.472;2023-03-01T03:33:41;4.75;;;2.67;;
54235;SDS011;40151;43.606;1.472;2023-03-01T03:36:07;4.70;;;2.95;;
54235;SDS011;40151;43.606;1.472;2023-03-01T03:38:37;4.40;;;2.67;;
54235;SDS011;40151;43.606;1.472;2023-03-01T03:41:05;5.05;;;3.17;;
54235;SDS011;40151;43.606;1.472;2023-03-01T03:43:34;4.25;;;2.70;;
54235;SDS011;40151;43.606;1.472;2023-03-01T03:46:02;4.93;;;2.88;;
54235;SDS011;40151;43.606;1.472;2023-03-01T03:48:36;4.85;;;2.53;;
54235;SDS011;40151;43.606;1.472;2023-03-01T03:51:06;5.00;;;2.72;;
54235;SDS011;40151;43.606;1.472;2023-03-01T03:53:41;4.68;;;2.80;;
54235;SDS011;40151;43.606;1.472;2023-03-01T03:56:12;4.20;;;2.80;;
54235;SDS011;40151;43.606;1.472;2023-03-01T03:58:40;4.38;;;2.83;;
54235;SDS011;40151;43.606;1.472;2023-03-01T04:01:09;4.70;;;2.80;;
54235;SDS011;40151;43.606;1.472;2023-03-01T04:03:46;4.82;;;3.03;;
54235;SDS011;40151;43.606;1.472;2023-03-01T04:06:30;5.07;;;3.13;;
54235;SDS011;40151;43.606;1.472;2023-03-01T04:09:24;5.18;;;2.88;;
54235;SDS011;40151;43.606;1.472;2023-03-01T04:12:21;4.82;;;2.83;;
54235;SDS011;40151;43.606;1.472;2023-03-01T04:15:27;5.22;;;2.67;;
54235;SDS011;40151;43.606;1.472;2023-03-01T04:18:08;5.13;;;2.95;;
54235;SDS011;40151;43.606;1.472;2023-03-01T04:21:32;5.50;;;3.40;;
54235;SDS011;40151;43.606;1.472;2023-03-01T04:24:30;4.57;;;3.00;;
54235;SDS011;40151;43.606;1.472;2023-03-01T04:27:07;4.30;;;2.72;;
54235;SDS011;40151;43.606;1.472;2023-03-01T04:29:54;5.20;;;3.05;;
54235;SDS011;40151;43.606;1.472;2023-03-01T04:32:45;4.70;;;2.92;;
54235;SDS011;40151;43.606;1.472;2023-03-01T04:35:12;4.43;;;2.85;;
54235;SDS011;40151;43.606;1.472;2023-03-01T04:37:37;4.65;;;2.72;;
54235;SDS011;40151;43.606;1.472;2023-03-01T04:40:03;5.55;;;3.17;;
54235;SDS011;40151;43.606;1.472;2023-03-01T04:42:53;4.20;;;2.70;;
54235;SDS011;40151;43.606;1.472;2023-03-01T04:45:25;4.97;;;3.20;;
54235;SDS011;40151;43.606;1.472;2023-03-01T04:48:05;4.30;;;3.00;;
54235;SDS011;40151;43.606;1.472;2023-03-01T04:50:48;4.53;;;2.78;;
54235;SDS011;40151;43.606;1.472;2023-03-01T04:53:28;4.90;;;3.10;;
54235;SDS011;40151;43.606;1.472;2023-03-01T04:56:00;6.47;;;2.78;;
54235;SDS011;40151;43.606;1.472;2023-03-01T04:58:48;4.88;;;3.25;;
54235;SDS011;40151;43.606;1.472;2023-03-01T05:02:06;4.15;;;2.70;;
54235;SDS011;40151;43.606;1.472;2023-03-01T05:04:57;4.88;;;2.97;;
54235;SDS011;40151;43.606;1.472;2023-03-01T05:07:22;4.40;;;2.92;;
54235;SDS011;40151;43.606;1.472;2023-03-01T05:09:52;5.53;;;3.10;;
54235;SDS011;40151;43.606;1.472;2023-03-01T05:12:22;4.65;;;2.88;;
54235;SDS011;40151;43.606;1.472;2023-03-01T05:14:50;4.90;;;3.00;;
54235;SDS011;40151;43.606;1.472;2023-03-01T05:17:25;4.50;;;2.95;;
54235;SDS011;40151;43.606;1.472;2023-03-01T05:26:49;5.05;;;3.28;;
54235;SDS011;40151;43.606;1.472;2023-03-01T05:30:27;4.93;;;2.92;;
54235;SDS011;40151;43.606;1.472;2023-03-01T05:33:53;4.85;;;3.10;;
54235;SDS011;40151;43.606;1.472;2023-03-01T05:37:20;4.88;;;3.03;;
54235;SDS011;40151;43.606;1.472;2023-03-01T05:44:39;4.70;;;2.72;;
54235;SDS011;40151;43.606;1.472;2023-03-01T05:47:29;4.82;;;3.13;;
54235;SDS011;40151;43.606;1.472;2023-03-01T05:50:46;5.30;;;3.13;;
54235;SDS011;40151;43.606;1.472;2023-03-01T05:53:56;4.85;;;3.25;;
54235;SDS011;40151;43.606;1.472;2023-03-01T05:56:24;4.20;;;2.70;;
54235;SDS011;40151;43.606;1.472;2023-03-01T05:58:52;5.00;;;2.97;;
54235;SDS011;40151;43.606;1.472;2023-03-01T06:01:19;4.25;;;2.72;;
54235;SDS011;40151;43.606;1.472;2023-03-01T06:03:46;5.18;;;3.28;;
54235;SDS011;40151;43.606;1.472;2023-03-01T06:06:26;6.53;;;3.30;;
54235;SDS011;40151;43.606;1.472;2023-03-01T06:08:57;5.55;;;3.05;;
54235;SDS011;40151;43.606;1.472;2023-03-01T06:11:25;5.63;;;3.22;;
54235;SDS011;40151;43.606;1.472;2023-03-01T06:14:33;5.35;;;2.90;;
54235;SDS011;40151;43.606;1.472;2023-03-01T06:17:00;4.70;;;2.83;;
54235;SDS011;40151;43.606;1.472;2023-03-01T06:19:25;5.05;;;2.90;;
54235;SDS011;40151;43.606;1.472;2023-03-01T06:21:51;4.75;;;2.92;;
54235;SDS011;40151;43.606;1.472;2023-03-01T06:24:26;4.47;;;2.92;;
54235;SDS011;40151;43.606;1.472;2023-03-01T06:26:56;4.95;;;3.10;;
54235;SDS011;40151;43.606;1.472;2023-03-01T06:29:30;4.28;;;3.05;;
54235;SDS011;40151;43.606;1.472;2023-03-01T06:32:52;4.35;;;2.92;;
54235;SDS011;40151;43.606;1.472;2023-03-01T06:35:26;4.40;;;2.53;;
54235;SDS011;40151;43.606;1.472;2023-03-01T06:37:56;5.22;;;2.88;;
54235;SDS011;40151;43.606;1.472;2023-03-01T06:40:23;4.70;;;3.03;;
54235;SDS011;40151;43.606;1.472;2023-03-01T06:42:54;4.80;;;2.88;;
54235;SDS011;40151;43.606;1.472;2023-03-01T06:45:20;4.57;;;2.95;;
54235;SDS011;40151;43.606;1.472;2023-03-01T06:47:46;4.85;;;2.95;;
54235;SDS011;40151;43.606;1.472;2023-03-01T06:50:13;4.50;;;2.85;;
54235;SDS011;40151;43.606;1.472;2023-03-01T06:52:39;5.05;;;3.10;;
54235;SDS011;40151;43.606;1.472;2023-03-01T06:55:05;5.15;;;3.30;;
54235;SDS011;40151;43.606;1.472;2023-03-01T06:57:31;5.15;;;3.03;;
54235;SDS011;40151;43.606;1.472;2023-03-01T06:59:56;5.03;;;3.03;;
54235;SDS011;40151;43.606;1.472;2023-03-01T07:02:22;4.45;;;2.95;;
54235;SDS011;40151;43.606;1.472;2023-03-01T07:04:51;4.88;;;2.70;;
54235;SDS011;40151;43.606;1.472;2023-03-01T07:07:17;4.88;;;3.13;;
54235;SDS011;40151;43.606;1.472;2023-03-01T07:09:43;4.47;;;2.75;;
54235;SDS011;40151;43.606;1.472;2023-03-01T07:12:10;5.03;;;2.83;;
54235;SDS011;40151;43.606;1.472;2023-03-01T07:14:35;5.07;;;3.00;;
54235;SDS011;40151;43.606;1.472;2023-03-01T07:17:01;6.05;;;3.38;;
54235;SDS011;40151;43.606;1.472;2023-03-01T07:19:26;4.70;;;2.78;;
54235;SDS011;40151;43.606;1.472;2023-03-01T07:21:51;5.93;;;4.07;;
54235;SDS011;40151;43.606;1.472;2023-03-01T07:24:17;5.80;;;3.60;;
54235;SDS011;40151;43.606;1.472;2023-03-01T07:26:42;8.68;;;3.83;;
54235;SDS011;40151;43.606;1.472;2023-03-01T07:29:09;8.43;;;3.67;;
54235;SDS011;40151;43.606;1.472;2023-03-01T07:31:35;7.63;;;4.22;;
54235;SDS011;40151;43.606;1.472;2023-03-01T07:34:01;8.32;;;3.90;;
54235;SDS011;40151;43.606;1.472;2023-03-01T07:36:27;6.28;;;3.78;;
54235;SDS011;40151;43.606;1.472;2023-03-01T07:38:52;8.05;;;4.53;;
54235;SDS011;40151;43.606;1.472;2023-03-01T07:41:18;7.80;;;4.43;;
54235;SDS011;40151;43.606;1.472;2023-03-01T07:43:43;7.22;;;3.92;;
54235;SDS011;40151;43.606;1.472;2023-03-01T07:46:09;8.05;;;4.07;;
54235;SDS011;40151;43.606;1.472;2023-03-01T07:48:34;9.07;;;4.30;;
54235;SDS011;40151;43.606;1.472;2023-03-01T07:51:00;7.00;;;3.88;;
54235;SDS011;40151;43.606;1.472;2023-03-01T07:53:26;7.88;;;4.22;;
54235;SDS011;40151;43.606;1.472;2023-03-01T07:56:04;6.18;;;3.90;;
54235;SDS011;40151;43.606;1.472;2023-03-01T07:58:33;8.60;;;4.43;;
54235;SDS011;40151;43.606;1.472;2023-03-01T08:01:01;8.75;;;4.60;;
54235;SDS011;40151;43.606;1.472;2023-03-01T08:03:28;6.35;;;3.92;;
54235;SDS011;40151;43.606;1.472;2023-03-01T08:05:53;6.05;;;3.80;;
54235;SDS011;40151;43.606;1.472;2023-03-01T08:08:19;6.78;;;4.57;;
54235;SDS011;40151;43.606;1.472;2023-03-01T08:10:44;7.30;;;4.15;;
54235;SDS011;40151;43.606;1.472;2023-03-01T08:13:10;6.20;;;4.00;;
54235;SDS011;40151;43.606;1.472;2023-03-01T08:15:35;7.55;;;4.32;;
54235;SDS011;40151;43.606;1.472;2023-03-01T08:18:01;6.93;;;3.95;;
54235;SDS011;40151;43.606;1.472;2023-03-01T08:20:26;8.02;;;4.53;;
54235;SDS011;40151;43.606;1.472;2023-03-01T08:22:51;6.28;;;3.90;;
54235;SDS011;40151;43.606;1.472;2023-03-01T08:25:17;7.43;;;4.50;;
54235;SDS011;40151;43.606;1.472;2023-03-01T08:27:42;7.57;;;4.25;;
54235;SDS011;40151;43.606;1.472;2023-03-01T08:30:09;8.35;;;4.20;;
54235;SDS011;40151;43.606;1.472;2023-03-01T08:32:36;7.10;;;4.00;;
54235;SDS011;40151;43.606;1.472;2023-03-01T08:35:03;6.03;;;3.95;;
54235;SDS011;40151;43.606;1.472;2023-03-01T08:37:29;7.35;;;4.05;;
54235;SDS011;40151;43.606;1.472;2023-03-01T08:39:56;7.40;;;4.10;;
54235;SDS011;40151;43.606;1.472;2023-03-01T08:42:21;6.85;;;4.47;;
54235;SDS011;40151;43.606;1.472;2023-03-01T08:44:47;7.05;;;3.95;;
54235;SDS011;40151;43.606;1.472;2023-03-01T08:47:12;7.78;;;4.50;;
54235;SDS011;40151;43.606;1.472;2023-03-01T08:49:37;6.38;;;4.18;;
54235;SDS011;40151;43.606;1.472;2023-03-01T08:52:03;6.45;;;4.20;;
54235;SDS011;40151;43.606;1.472;2023-03-01T08:54:28;6.70;;;4.10;;
54235;SDS011;40151;43.606;1.472;2023-03-01T08:56:54;8.60;;;4.05;;
54235;SDS011;40151;43.606;1.472;2023-03-01T08:59:19;6.32;;;4.03;;
54235;SDS011;40151;43.606;1.472;2023-03-01T09:01:45;7.82;;;4.78;;
54235;SDS011;40151;43.606;1.472;2023-03-01T09:04:11;7.30;;;4.20;;
54235;SDS011;40151;43.606;1.472;2023-03-01T09:06:37;5.80;;;3.88;;
54235;SDS011;40151;43.606;1.472;2023-03-01T09:09:04;9.55;;;4.68;;
54235;SDS011;40151;43.606;1.472;2023-03-01T09:11:30;6.65;;;4.07;;
54235;SDS011;40151;43.606;1.472;2023-03-01T09:13:56;7.13;;;4.57;;
54235;SDS011;40151;43.606;1.472;2023-03-01T09:16:21;7.32;;;4.78;;
54235;SDS011;40151;43.606;1.472;2023-03-01T09:18:51;6.57;;;3.92;;
54235;SDS011;40151;43.606;1.472;2023-03-01T09:21:18;6.38;;;4.00;;
54235;SDS011;40151;43.606;1.472;2023-03-01T09:23:46;7.07;;;4.50;;
54235;SDS011;40151;43.606;1.472;2023-03-01T09:26:14;7.30;;;4.45;;
54235;SDS011;40151;43.606;1.472;2023-03-01T09:28:44;5.72;;;3.80;;
54235;SDS011;40151;43.606;1.472;2023-03-01T09:31:11;6.72;;;4.18;;
54235;SDS011;40151;43.606;1.472;2023-03-01T09:33:38;6.90;;;4.32;;
54235;SDS011;40151;43.606;1.472;2023-03-01T09:36:05;7.05;;;3.90;;
54235;SDS011;40151;43.606;1.472;2023-03-01T09:38:32;7.00;;;4.00;;
54235;SDS011;40151;43.606;1.472;2023-03-01T09:40:59;6.72;;;4.38;;
54235;SDS011;40151;43.606;1.472;2023-03-01T09:43:45;7.40;;;4.30;;
54235;SDS011;40151;43.606;1.472;2023-03-01T09:46:13;6.25;;;4.20;;
54235;SDS011;40151;43.606;1.472;2023-03-01T09:49:02;6.57;;;4.00;;
54235;SDS011;40151;43.606;1.472;2023-03-01T09:51:35;5.05;;;3.70;;
54235;SDS011;40151;43.606;1.472;2023-03-01T09:54:02;6.63;;;4.30;;
54235;SDS011;40151;43.606;1.472;2023-03-01T09:56:32;7.45;;;4.20;;
54235;SDS011;40151;43.606;1.472;2023-03-01T09:59:00;6.20;;;4.03;;
54235;SDS011;40151;43.606;1.472;2023-03-01T10:06:26;5.00;;;3.35;;
54235;SDS011;40151;43.606;1.472;2023-03-01T10:08:59;6.47;;;3.60;;
54235;SDS011;40151;43.606;1.472;2023-03-01T10:11:31;6.03;;;3.80;;
54235;SDS011;40151;43.606;1.472;2023-03-01T10:14:05;6.25;;;4.00;;
54235;SDS011;40151;43.606;1.472;2023-03-01T10:16:51;5.20;;;3.35;;
54235;SDS011;40151;43.606;1.472;2023-03-01T10:22:00;6.63;;;4.10;;
54235;SDS011;40151;43.606;1.472;2023-03-01T10:24:32;6.50;;;3.10;;
54235;SDS011;40151;43.606;1.472;2023-03-01T10:27:05;5.82;;;4.03;;
54235;SDS011;40151;43.606;1.472;2023-03-01T10:29:39;5.80;;;3.70;;
54235;SDS011;40151;43.606;1.472;2023-03-01T10:32:17;5.20;;;3.35;;
54235;SDS011;40151;43.606;1.472;2023-03-01T10:34:43;5.22;;;3.05;;
54235;SDS011;40151;43.606;1.472;2023-03-01T10:42:34;5.20;;;3.08;;
54235;SDS011;40151;43.606;1.472;2023-03-01T10:50:43;5.32;;;3.40;;
54235;SDS011;40151;43.606;1.472;2023-03-01T10:53:32;5.00;;;3.25;;
54235;SDS011;40151;43.606;1.472;2023-03-01T10:56:01;5.23;;;3.33;;
54235;SDS011;40151;43.606;1.472;2023-03-01T10:58:35;4.97;;;3.22;;
54235;SDS011;40151;43.606;1.472;2023-03-01T11:01:03;5.38;;;3.22;;
54235;SDS011;40151;43.606;1.472;2023-03-01T11:03:32;5.70;;;3.30;;
54235;SDS011;40151;43.606;1.472;2023-03-01T11:08:42;5.20;;;3.17;;
54235;SDS011;40151;43.606;1.472;2023-03-01T11:11:16;4.40;;;2.80;;
54235;SDS011;40151;43.606;1.472;2023-03-01T11:13:55;6.03;;;3.30;;
54235;SDS011;40151;43.606;1.472;2023-03-01T11:16:30;5.53;;;3.30;;
54235;SDS011;40151;43.606;1.472;2023-03-01T11:19:06;4.68;;;3.25;;
54235;SDS011;40151;43.606;1.472;2023-03-01T11:21:53;4.40;;;2.88;;
54235;SDS011;40151;43.606;1.472;2023-03-01T11:24:27;5.45;;;2.90;;
54235;SDS011;40151;43.606;1.472;2023-03-01T11:29:45;5.18;;;3.22;;
54235;SDS011;40151;43.606;1.472;2023-03-01T11:32:16;5.25;;;3.20;;
54235;SDS011;40151;43.606;1.472;2023-03-01T11:34:51;5.43;;;3.15;;
54235;SDS011;40151;43.606;1.472;2023-03-01T11:37:30;4.95;;;2.95;;
54235;SDS011;40151;43.606;1.472;2023-03-01T11:45:15;5.75;;;3.22;;
54235;SDS011;40151;43.606;1.472;2023-03-01T11:47:48;4.55;;;2.88;;
54235;SDS011;40151;43.606;1.472;2023-03-01T11:58:37;4.75;;;2.95;;
54235;SDS011;40151;43.606;1.472;2023-03-01T12:19:58;6.05;;;3.33;;
54235;SDS011;40151;43.606;1.472;2023-03-01T12:28:44;5.68;;;3.47;;
54235;SDS011;40151;43.606;1.472;2023-03-01T12:31:44;6.05;;;3.75;;
54235;SDS011;40151;43.606;1.472;2023-03-01T12:37:14;5.90;;;4.00;;
54235;SDS011;40151;43.606;1.472;2023-03-01T12:45:42;6.40;;;4.13;;
54235;SDS011;40151;43.606;1.472;2023-03-01T12:50:44;6.13;;;3.60;;
54235;SDS011;40151;43.606;1.472;2023-03-01T12:53:19;5.80;;;3.35;;
54235;SDS011;40151;43.606;1.472;2023-03-01T12:55:47;6.18;;;3.72;;
54235;SDS011;40151;43.606;1.472;2023-03-01T13:03:55;6.63;;;3.80;;
54235;SDS011;40151;43.606;1.472;2023-03-01T13:12:45;5.50;;;3.10;;
54235;SDS011;40151;43.606;1.472;2023-03-01T13:15:32;6.72;;;3.90;;
54235;SDS011;40151;43.606;1.472;2023-03-01T13:20:51;5.93;;;3.70;;
54235;SDS011;40151;43.606;1.472;2023-03-01T13:28:46;6.65;;;3.40;;
54235;SDS011;40151;43.606;1.472;2023-03-01T13:44:13;4.97;;;3.22;;
54235;SDS011;40151;43.606;1.472;2023-03-01T13:46:43;5.75;;;3.40;;
54235;SDS011;40151;43.606;1.472;2023-03-01T13:49:11;5.75;;;3.30;;
54235;SDS011;40151;43.606;1.472;2023-03-01T13:51:41;6.93;;;3.42;;
54235;SDS011;40151;43.606;1.472;2023-03-01T13:54:09;5.75;;;3.55;;
54235;SDS011;40151;43.606;1.472;2023-03-01T13:56:37;5.80;;;3.20;;
54235;SDS011;40151;43.606;1.472;2023-03-01T13:59:19;5.05;;;3.13;;
54235;SDS011;40151;43.606;1.472;2023-03-01T14:01:57;7.70;;;3.63;;
54235;SDS011;40151;43.606;1.472;2023-03-01T14:04:25;4.75;;;3.13;;
54235;SDS011;40151;43.606;1.472;2023-03-01T14:09:49;5.82;;;3.22;;
54235;SDS011;40151;43.606;1.472;2023-03-01T14:14:53;5.65;;;3.47;;
54235;SDS011;40151;43.606;1.472;2023-03-01T14:20:25;5.72;;;3.42;;
54235;SDS011;40151;43.606;1.472;2023-03-01T14:23:08;4.28;;;3.05;;
54235;SDS011;40151;43.606;1.472;2023-03-01T14:25:37;5.60;;;3.10;;
54235;SDS011;40151;43.606;1.472;2023-03-01T14:28:10;4.90;;;3.33;;
54235;SDS011;40151;43.606;1.472;2023-03-01T14:30:41;5.53;;;3.13;;
54235;SDS011;40151;43.606;1.472;2023-03-01T14:35:58;5.85;;;3.35;;
54235;SDS011;40151;43.606;1.472;2023-03-01T14:38:32;4.78;;;2.85;;
54235;SDS011;40151;43.606;1.472;2023-03-01T14:41:21;4.90;;;3.13;;
54235;SDS011;40151;43.606;1.472;2023-03-01T14:49:09;3.88;;;2.60;;
54235;SDS011;40151;43.606;1.472;2023-03-01T14:51:42;5.57;;;3.03;;
54235;SDS011;40151;43.606;1.472;2023-03-01T14:54:47;4.68;;;2.70;;
54235;SDS011;40151;43.606;1.472;2023-03-01T14:57:21;5.47;;;3.35;;
54235;SDS011;40151;43.606;1.472;2023-03-01T14:59:49;5.18;;;3.25;;
54235;SDS011;40151;43.606;1.472;2023-03-01T15:02:18;4.80;;;3.10;;
54235;SDS011;40151;43.606;1.472;2023-03-01T15:04:48;4.43;;;2.92;;
54235;SDS011;40151;43.606;1.472;2023-03-01T15:07:16;4.65;;;2.92;;
54235;SDS011;40151;43.606;1.472;2023-03-01T15:09:42;4.43;;;2.92;;
54235;SDS011;40151;43.606;1.472;2023-03-01T15:17:54;4.53;;;2.78;;
54235;SDS011;40151;43.606;1.472;2023-03-01T15:20:22;4.40;;;2.90;;
54235;SDS011;40151;43.606;1.472;2023-03-01T15:22:53;5.45;;;3.25;;
54235;SDS011;40151;43.606;1.472;2023-03-01T15:25:27;4.82;;;3.00;;
54235;SDS011;40151;43.606;1.472;2023-03-01T15:27:54;4.65;;;2.70;;
54235;SDS011;40151;43.606;1.472;2023-03-01T15:30:23;5.50;;;2.70;;
54235;SDS011;40151;43.606;1.472;2023-03-01T15:35:57;5.68;;;2.90;;
54235;SDS011;40151;43.606;1.472;2023-03-01T15:38:37;3.97;;;2.17;;
54235;SDS011;40151;43.606;1.472;2023-03-01T15:41:24;5.78;;;3.35;;
54235;SDS011;40151;43.606;1.472;2023-03-01T15:43:56;5.03;;;2.83;;
54235;SDS011;40151;43.606;1.472;2023-03-01T15:46:29;4.50;;;2.63;;
54235;SDS011;40151;43.606;1.472;2023-03-01T15:49:02;4.45;;;2.78;;
54235;SDS011;40151;43.606;1.472;2023-03-01T15:51:31;4.65;;;2.70;;
54235;SDS011;40151;43.606;1.472;2023-03-01T15:53:59;4.50;;;2.85;;
54235;SDS011;40151;43.606;1.472;2023-03-01T15:56:26;3.80;;;2.67;;
54235;SDS011;40151;43.606;1.472;2023-03-01T15:58:52;4.13;;;2.65;;
54235;SDS011;40151;43.606;1.472;2023-03-01T16:01:18;4.28;;;2.75;;
54235;SDS011;40151;43.606;1.472;2023-03-01T16:03:44;4.65;;;2.50;;
54235;SDS011;40151;43.606;1.472;2023-03-01T16:06:10;4.00;;;2.67;;
54235;SDS011;40151;43.606;1.472;2023-03-01T16:08:39;4.32;;;2.65;;
54235;SDS011;40151;43.606;1.472;2023-03-01T16:11:05;4.50;;;2.60;;
54235;SDS011;40151;43.606;1.472;2023-03-01T16:13:39;4.78;;;2.72;;
54235;SDS011;40151;43.606;1.472;2023-03-01T16:16:05;3.70;;;2.50;;
54235;SDS011;40151;43.606;1.472;2023-03-01T16:18:30;3.83;;;2.22;;
54235;SDS011;40151;43.606;1.472;2023-03-01T16:20:56;4.45;;;2.80;;
54235;SDS011;40151;43.606;1.472;2023-03-01T16:23:21;4.47;;;2.50;;
54235;SDS011;40151;43.606;1.472;2023-03-01T16:25:49;5.57;;;2.80;;
54235;SDS011;40151;43.606;1.472;2023-03-01T16:28:15;4.25;;;2.58;;
54235;SDS011;40151;43.606;1.472;2023-03-01T16:30:44;3.78;;;2.30;;
54235;SDS011;40151;43.606;1.472;2023-03-01T16:33:12;4.45;;;2.60;;
54235;SDS011;40151;43.606;1.472;2023-03-01T16:35:40;4.05;;;2.65;;
54235;SDS011;40151;43.606;1.472;2023-03-01T16:38:05;4.85;;;2.78;;
54235;SDS011;40151;43.606;1.472;2023-03-01T16:40:31;3.72;;;2.30;;
54235;SDS011;40151;43.606;1.472;2023-03-01T16:42:58;5.10;;;2.63;;
54235;SDS011;40151;43.606;1.472;2023-03-01T16:45:26;4.57;;;2.97;;
54235;SDS011;40151;43.606;1.472;2023-03-01T16:47:57;4.82;;;2.55;;
54235;SDS011;40151;43.606;1.472;2023-03-01T16:50:23;4.38;;;2.63;;
54235;SDS011;40151;43.606;1.472;2023-03-01T16:52:49;4.35;;;2.58;;
54235;SDS011;40151;43.606;1.472;2023-03-01T16:55:15;4.18;;;2.65;;
54235;SDS011;40151;43.606;1.472;2023-03-01T16:57:40;4.05;;;2.60;;
54235;SDS011;40151;43.606;1.472;2023-03-01T17:00:06;5.13;;;2.88;;
54235;SDS011;40151;43.606;1.472;2023-03-01T17:02:35;3.75;;;2.40;;
54235;SDS011;40151;43.606;1.472;2023-03-01T17:05:01;5.18;;;3.00;;
54235;SDS011;40151;43.606;1.472;2023-03-01T17:07:28;4.90;;;2.72;;
54235;SDS011;40151;43.606;1.472;2023-03-01T17:09:58;4.70;;;2.55;;
54235;SDS011;40151;43.606;1.472;2023-03-01T17:12:23;4.00;;;2.70;;
54235;SDS011;40151;43.606;1.472;2023-03-01T17:14:49;4.18;;;2.35;;
54235;SDS011;40151;43.606;1.472;2023-03-01T17:17:14;4.55;;;2.80;;
54235;SDS011;40151;43.606;1.472;2023-03-01T17:19:40;5.38;;;2.75;;
54235;SDS011;40151;43.606;1.472;2023-03-01T17:22:08;3.83;;;2.17;;
54235;SDS011;40151;43.606;1.472;2023-03-01T17:24:36;4.45;;;2.72;;
54235;SDS011;40151;43.606;1.472;2023-03-01T17:27:03;4.10;;;2.58;;
54235;SDS011;40151;43.606;1.472;2023-03-01T17:29:29;5.32;;;2.53;;
54235;SDS011;40151;43.606;1.472;2023-03-01T17:31:55;3.67;;;2.10;;
54235;SDS011;40151;43.606;1.472;2023-03-01T17:34:21;3.95;;;2.72;;
54235;SDS011;40151;43.606;1.472;2023-03-01T17:36:47;5.30;;;2.92;;
54235;SDS011;40151;43.606;1.472;2023-03-01T17:39:14;3.90;;;2.58;;
54235;SDS011;40151;43.606;1.472;2023-03-01T17:41:41;4.03;;;2.40;;
54235;SDS011;40151;43.606;1.472;2023-03-01T17:44:06;5.18;;;2.67;;
54235;SDS011;40151;43.606;1.472;2023-03-01T17:46:32;8.45;;;3.00;;
54235;SDS011;40151;43.606;1.472;2023-03-01T17:48:57;7.53;;;3.20;;
54235;SDS011;40151;43.606;1.472;2023-03-01T17:51:22;9.02;;;3.38;;
54235;SDS011;40151;43.606;1.472;2023-03-01T17:53:48;4.78;;;2.40;;
54235;SDS011;40151;43.606;1.472;2023-03-01T17:56:13;5.88;;;2.63;;